createdAt,value
2022-11-24T00:00:23.156Z,97333.00
2022-11-24T00:02:58.323Z,97331.00
2022-11-24T00:05:38.397Z,97345.00
2022-11-24T00:08:13.533Z,97346.00
2022-11-24T00:10:48.405Z,97343.00
2022-11-24T00:13:23.225Z,97347.00
2022-11-24T00:16:16.001Z,97346.00
2022-11-24T00:18:53.523Z,97345.00
2022-11-24T00:21:30.328Z,97358.00
2022-11-24T00:24:06.181Z,97355.00
2022-11-24T00:26:41.101Z,97348.00
2022-11-24T00:29:15.981Z,97349.00
2022-11-24T00:31:50.811Z,97355.00
2022-11-24T00:34:25.678Z,97358.00
2022-11-24T00:37:00.577Z,97369.00
2022-11-24T00:39:35.395Z,97368.00
2022-11-24T00:42:10.307Z,97375.00
2022-11-24T00:44:45.159Z,97373.00
2022-11-24T00:47:20.015Z,97368.00
2022-11-24T00:49:54.868Z,97383.00
2022-11-24T00:52:29.740Z,97385.00
2022-11-24T00:55:05.063Z,97382.00
2022-11-24T00:57:39.887Z,97395.00
2022-11-24T01:00:15.495Z,97383.00
2022-11-24T01:02:50.478Z,97388.00
2022-11-24T01:05:25.395Z,97395.00
2022-11-24T01:08:00.246Z,97409.00
2022-11-24T01:10:35.425Z,97402.00
2022-11-24T01:13:12.040Z,97406.00
2022-11-24T01:15:46.994Z,97409.00
2022-11-24T01:18:21.874Z,97413.00
2022-11-24T01:20:56.714Z,97420.00
2022-11-24T01:23:32.270Z,97429.00
2022-11-24T01:26:09.841Z,97422.00
2022-11-24T01:28:47.557Z,97421.00
2022-11-24T01:31:23.664Z,97431.00
2022-11-24T01:33:58.773Z,97427.00
2022-11-24T01:36:34.019Z,97430.00
2022-11-24T01:39:08.988Z,97434.00
2022-11-24T01:41:43.826Z,97433.00
2022-11-24T01:44:29.150Z,97421.00
2022-11-24T01:47:30.552Z,97427.00
2022-11-24T01:50:05.997Z,97431.00
2022-11-24T01:52:48.475Z,97427.00
2022-11-24T01:55:33.519Z,97436.00
2022-11-24T01:58:15.915Z,97432.00
2022-11-24T02:00:51.757Z,97445.00
2022-11-24T02:03:33.788Z,97432.00
2022-11-24T02:06:14.493Z,97442.00
2022-11-24T02:08:57.501Z,97435.00
2022-11-24T02:11:38.364Z,97443.00
2022-11-24T02:14:16.845Z,97451.00
2022-11-24T02:16:53.172Z,97449.00
2022-11-24T02:19:40.147Z,97447.00
2022-11-24T02:22:45.592Z,97451.00
2022-11-24T02:25:36.705Z,97457.00
2022-11-24T02:28:16.916Z,97462.00
2022-11-24T02:30:52.946Z,97461.00
2022-11-24T02:33:28.997Z,97463.00
2022-11-24T02:36:04.058Z,97463.00
2022-11-24T02:38:38.943Z,97466.00
2022-11-24T02:41:20.047Z,97460.00
2022-11-24T02:44:00.433Z,97459.00
2022-11-24T02:46:35.274Z,97456.00
2022-11-24T02:49:10.099Z,97446.00
2022-11-24T02:51:44.941Z,97454.00
2022-11-24T02:54:19.929Z,97459.00
2022-11-24T02:56:55.058Z,97460.00
2022-11-24T02:59:29.918Z,97455.00
2022-11-24T03:02:04.837Z,97453.00
2022-11-24T03:04:39.705Z,97464.00
2022-11-24T03:07:14.743Z,97470.00
2022-11-24T03:09:49.682Z,97472.00
2022-11-24T03:12:24.535Z,97470.00
2022-11-24T03:14:59.410Z,97473.00
2022-11-24T03:17:34.242Z,97467.00
2022-11-24T03:20:10.233Z,97468.00
2022-11-24T03:22:45.055Z,97476.00
2022-11-24T03:25:19.971Z,97476.00
2022-11-24T03:27:57.625Z,97482.00
2022-11-24T03:30:32.591Z,97478.00
2022-11-24T03:33:07.666Z,97484.00
2022-11-24T03:35:42.654Z,97488.00
2022-11-24T03:38:17.498Z,97490.00
2022-11-24T03:40:52.378Z,97486.00
2022-11-24T03:43:27.226Z,97491.00
2022-11-24T03:46:02.129Z,97502.00
2022-11-24T03:48:37.013Z,97509.00
2022-11-24T03:51:11.885Z,97501.00
2022-11-24T03:53:46.717Z,97504.00
2022-11-24T03:56:21.545Z,97497.00
2022-11-24T03:58:56.632Z,97501.00
2022-11-24T04:01:31.558Z,97516.00
2022-11-24T04:04:06.489Z,97501.00
2022-11-24T04:06:41.471Z,97511.00
2022-11-24T04:09:16.532Z,97512.00
2022-11-24T04:12:09.651Z,97523.00
2022-11-24T04:14:44.468Z,97525.00
2022-11-24T04:17:19.285Z,97522.00
2022-11-24T04:19:54.125Z,97518.00
2022-11-24T04:22:28.991Z,97522.00
2022-11-24T04:25:06.048Z,97519.00
2022-11-24T04:27:40.872Z,97528.00
2022-11-24T04:30:15.763Z,97533.00
2022-11-24T04:32:51.370Z,97539.00
2022-11-24T04:35:26.191Z,97544.00
2022-11-24T04:38:04.175Z,97547.00
2022-11-24T04:40:39.127Z,97542.00
2022-11-24T04:43:13.969Z,97545.00
2022-11-24T04:45:48.813Z,97545.00
2022-11-24T04:48:23.787Z,97539.00
2022-11-24T04:50:58.684Z,97544.00
2022-11-24T04:53:33.515Z,97535.00
2022-11-24T04:56:08.709Z,97535.00
2022-11-24T04:58:43.509Z,97537.00
2022-11-24T05:01:18.377Z,97542.00
2022-11-24T05:03:55.751Z,97550.00
2022-11-24T05:06:30.679Z,97542.00
2022-11-24T05:09:06.759Z,97560.00
2022-11-24T05:11:42.296Z,97560.00
2022-11-24T05:14:17.104Z,97560.00
2022-11-24T05:16:52.160Z,97570.00
2022-11-24T05:19:32.231Z,97558.00
2022-11-24T05:22:07.241Z,97567.00
2022-11-24T05:24:42.081Z,97562.00
2022-11-24T05:27:17.035Z,97568.00
2022-11-24T05:29:52.017Z,97562.00
2022-11-24T05:32:26.964Z,97563.00
2022-11-24T05:35:04.422Z,97572.00
2022-11-24T05:37:39.359Z,97582.00
2022-11-24T05:40:14.777Z,97578.00
2022-11-24T05:42:49.718Z,97583.00
2022-11-24T05:45:24.818Z,97575.00
2022-11-24T05:48:06.612Z,97580.00
2022-11-24T05:50:41.692Z,97583.00
2022-11-24T05:53:16.513Z,97584.00
2022-11-24T05:55:51.458Z,97576.00
2022-11-24T05:58:26.391Z,97571.00
2022-11-24T06:01:01.434Z,97568.00
2022-11-24T06:03:36.506Z,97566.00
2022-11-24T06:06:11.458Z,97571.00
2022-11-24T06:08:46.557Z,97555.00
2022-11-24T06:11:22.363Z,97564.00
2022-11-24T06:13:57.429Z,97565.00
2022-11-24T06:16:32.538Z,97565.00
2022-11-24T06:19:07.494Z,97569.00
2022-11-24T06:21:42.350Z,97581.00
2022-11-24T06:24:17.260Z,97581.00
2022-11-24T06:26:52.328Z,97585.00
2022-11-24T06:29:28.098Z,97594.00
2022-11-24T06:32:03.195Z,97587.00
2022-11-24T06:34:38.449Z,97603.00
2022-11-24T06:37:14.004Z,97611.00
2022-11-24T06:39:49.273Z,97599.00
2022-11-24T06:42:24.125Z,97610.00
2022-11-24T06:45:00.160Z,97611.00
2022-11-24T06:47:35.786Z,97623.00
2022-11-24T06:50:11.924Z,97627.00
2022-11-24T06:52:46.861Z,97623.00
2022-11-24T06:55:22.269Z,97625.00
2022-11-24T06:57:57.131Z,97630.00
2022-11-24T07:00:32.161Z,97623.00
2022-11-24T07:03:07.177Z,97637.00
2022-11-24T07:05:43.710Z,97648.00
2022-11-24T07:08:18.593Z,97651.00
2022-11-24T07:10:53.574Z,97647.00
2022-11-24T07:13:28.470Z,97656.00
2022-11-24T07:16:22.155Z,97657.00
2022-11-24T07:18:57.362Z,97661.00
2022-11-24T07:21:32.275Z,97670.00
2022-11-24T07:24:07.484Z,97672.00
2022-11-24T07:26:42.384Z,97682.00
2022-11-24T07:29:17.410Z,97691.00
2022-11-24T07:31:52.426Z,97686.00
2022-11-24T07:34:27.388Z,97700.00
2022-11-24T07:37:02.303Z,97707.00
2022-11-24T07:39:37.170Z,97719.00
2022-11-24T07:42:12.104Z,97715.00
2022-11-24T07:44:47.008Z,97732.00
2022-11-24T07:47:21.951Z,97729.00
2022-11-24T07:49:56.870Z,97735.00
2022-11-24T07:52:31.939Z,97746.00
2022-11-24T07:55:07.985Z,97740.00
2022-11-24T07:57:43.046Z,97750.00
2022-11-24T08:00:18.453Z,97747.00
2022-11-24T08:02:53.831Z,97743.00
2022-11-24T08:05:28.726Z,97727.00
2022-11-24T08:08:03.938Z,97716.00
2022-11-24T08:10:38.812Z,97720.00
2022-11-24T08:13:13.728Z,97717.00
2022-11-24T08:15:48.653Z,97723.00
2022-11-24T08:18:24.564Z,97727.00
2022-11-24T08:20:59.934Z,97734.00
2022-11-24T08:23:35.124Z,97729.00
2022-11-24T08:26:17.728Z,97731.00
2022-11-24T08:28:58.426Z,97736.00
2022-11-24T08:31:34.899Z,97732.00
2022-11-24T08:34:10.217Z,97745.00
2022-11-24T08:36:45.302Z,97742.00
2022-11-24T08:39:20.406Z,97752.00
2022-11-24T08:41:55.525Z,97754.00
2022-11-24T08:44:30.435Z,97756.00
2022-11-24T08:47:05.397Z,97760.00
2022-11-24T08:49:40.978Z,97765.00
2022-11-24T08:52:16.988Z,97769.00
2022-11-24T08:54:51.902Z,97761.00
2022-11-24T08:57:26.857Z,97765.00
2022-11-24T09:00:02.187Z,97768.00
2022-11-24T09:02:37.196Z,97772.00
2022-11-24T09:05:35.857Z,97769.00
2022-11-24T09:08:06.966Z,97774.00
2022-11-24T09:10:41.981Z,97776.00
2022-11-24T09:13:17.090Z,97777.00
2022-11-24T09:15:51.918Z,97776.00
2022-11-24T09:18:30.262Z,97787.00
2022-11-24T09:21:18.875Z,97782.00
2022-11-24T09:23:55.639Z,97803.00
2022-11-24T09:26:34.217Z,97808.00
2022-11-24T09:29:10.801Z,97796.00
2022-11-24T09:31:45.677Z,97812.00
2022-11-24T09:34:20.568Z,97817.00
2022-11-24T09:36:55.641Z,97808.00
2022-11-24T09:39:30.517Z,97815.00
2022-11-24T09:42:20.812Z,97818.00
2022-11-24T09:46:06.117Z,97829.00
2022-11-24T09:48:47.593Z,97843.00
2022-11-24T09:51:28.701Z,97833.00
2022-11-24T09:54:16.856Z,97842.00
2022-11-24T09:56:52.491Z,97844.00
2022-11-24T09:59:28.406Z,97851.00
2022-11-24T10:02:03.513Z,97856.00
2022-11-24T10:04:44.029Z,97849.00
2022-11-24T10:07:34.422Z,97841.00
2022-11-24T10:10:24.639Z,97852.00
2022-11-24T10:13:31.033Z,97857.00
2022-11-24T10:16:57.580Z,97858.00
2022-11-24T10:19:56.950Z,97850.00
2022-11-24T10:22:50.518Z,97857.00
2022-11-24T10:25:49.145Z,97852.00
2022-11-24T10:28:41.150Z,97851.00
2022-11-24T10:31:36.606Z,97849.00
2022-11-24T10:34:23.428Z,97864.00
2022-11-24T10:37:22.646Z,97856.00
2022-11-24T10:40:32.990Z,97860.00
2022-11-24T10:43:11.360Z,97851.00
2022-11-24T10:45:47.042Z,97854.00
2022-11-24T10:48:26.548Z,97854.00
2022-11-24T10:52:12.689Z,97862.00
2022-11-24T10:55:03.149Z,97854.00
2022-11-24T10:57:40.695Z,97859.00
2022-11-24T11:00:18.504Z,97869.00
2022-11-24T11:03:17.508Z,97858.00
2022-11-24T11:06:20.682Z,97862.00
2022-11-24T11:09:07.802Z,97854.00
2022-11-24T11:11:43.601Z,97855.00
2022-11-24T11:14:35.614Z,97863.00
2022-11-24T11:17:35.502Z,97864.00
2022-11-24T11:20:19.452Z,97863.00
2022-11-24T11:22:56.091Z,97864.00
2022-11-24T11:25:36.060Z,97866.00
2022-11-24T11:28:30.198Z,97871.00
2022-11-24T11:31:21.752Z,97858.00
2022-11-24T11:34:22.135Z,97859.00
2022-11-24T11:37:03.871Z,97862.00
2022-11-24T11:39:48.449Z,97854.00
2022-11-24T11:43:02.035Z,97855.00
2022-11-24T11:45:45.429Z,97864.00
2022-11-24T11:48:42.307Z,97864.00
2022-11-24T11:52:05.145Z,97869.00
2022-11-24T11:55:20.199Z,97852.00
2022-11-24T11:58:13.726Z,97861.00
2022-11-24T12:01:27.123Z,97856.00
2022-11-24T12:04:52.714Z,97858.00
2022-11-24T12:07:55.571Z,97861.00
2022-11-24T12:11:14.748Z,97868.00
2022-11-24T12:14:16.732Z,97873.00
2022-11-24T12:17:06.468Z,97871.00
2022-11-24T12:20:18.901Z,97877.00
2022-11-24T12:23:22.409Z,97875.00
2022-11-24T12:26:31.581Z,97882.00
2022-11-24T12:29:30.176Z,97882.00
2022-11-24T12:32:41.736Z,97897.00
2022-11-24T12:35:48.982Z,97888.00
2022-11-24T12:39:02.425Z,97885.00
2022-11-24T12:41:42.922Z,97887.00
2022-11-24T12:44:43.721Z,97889.00
2022-11-24T12:47:44.619Z,97896.00
2022-11-24T12:50:25.029Z,97894.00
2022-11-24T12:53:10.309Z,97885.00
2022-11-24T12:55:45.812Z,97888.00
2022-11-24T12:58:42.078Z,97893.00
2022-11-24T13:01:25.855Z,97890.00
2022-11-24T13:04:23.078Z,97893.00
2022-11-24T13:07:10.841Z,97885.00
2022-11-24T13:10:54.189Z,97873.00
2022-11-24T13:13:28.014Z,97885.00
2022-11-24T13:19:17.946Z,97892.00
2022-11-24T13:22:08.109Z,97877.00
2022-11-24T13:24:44.806Z,97890.00
2022-11-24T13:27:27.966Z,97912.00
2022-11-24T13:30:02.993Z,97895.00
2022-11-24T13:32:37.879Z,97890.00
2022-11-24T13:35:15.540Z,97913.00
2022-11-24T13:37:51.721Z,97909.00
2022-11-24T13:40:29.885Z,97904.00
2022-11-24T13:43:04.649Z,97909.00
2022-11-24T13:45:39.683Z,97909.00
2022-11-24T13:48:21.427Z,97911.00
2022-11-24T13:50:56.906Z,97909.00
2022-11-24T13:53:36.258Z,97916.00
2022-11-24T13:56:14.278Z,97924.00
2022-11-24T13:58:57.031Z,97912.00
2022-11-24T14:01:36.080Z,97913.00
2022-11-24T14:04:32.015Z,97912.00
2022-11-24T14:07:12.556Z,97913.00
2022-11-24T14:09:52.540Z,97905.00
2022-11-24T14:12:33.612Z,97905.00
2022-11-24T14:15:34.176Z,97901.00
2022-11-24T14:18:22.576Z,97901.00
2022-11-24T14:20:59.038Z,97896.00
2022-11-24T14:23:33.973Z,97896.00
2022-11-24T14:26:21.961Z,97893.00
2022-11-24T14:29:06.500Z,97902.00
2022-11-24T14:31:43.701Z,97892.00
2022-11-24T14:34:21.246Z,97906.00
2022-11-24T14:36:57.760Z,97907.00
2022-11-24T14:39:41.540Z,97910.00
2022-11-24T14:42:25.686Z,97903.00
2022-11-24T14:45:03.736Z,97915.00
2022-11-24T14:47:45.207Z,97915.00
2022-11-24T14:50:23.360Z,97919.00
2022-11-24T14:52:59.260Z,97925.00
2022-11-24T14:55:39.146Z,97923.00
2022-11-24T14:58:42.373Z,97931.00
2022-11-24T15:01:36.145Z,97931.00
2022-11-24T15:04:32.461Z,97931.00
2022-11-24T15:07:22.804Z,97940.00
2022-11-24T15:10:01.922Z,97937.00
2022-11-24T15:12:42.721Z,97945.00
2022-11-24T15:15:21.180Z,97952.00
2022-11-24T15:17:59.131Z,97951.00
2022-11-24T15:20:45.806Z,97947.00
2022-11-24T15:23:27.592Z,97950.00
2022-11-24T15:26:02.433Z,97947.00
2022-11-24T15:28:37.635Z,97944.00
2022-11-24T15:31:14.017Z,97948.00
2022-11-24T15:33:49.174Z,97943.00
2022-11-24T15:36:24.135Z,97953.00
2022-11-24T15:38:59.836Z,97950.00
2022-11-24T15:41:34.932Z,97966.00
2022-11-24T15:44:10.389Z,97961.00
2022-11-24T15:46:45.334Z,97964.00
2022-11-24T15:49:20.376Z,97966.00
2022-11-24T15:51:55.290Z,97976.00
2022-11-24T15:54:30.234Z,97971.00
2022-11-24T15:57:05.169Z,97978.00
2022-11-24T15:59:40.545Z,97980.00
2022-11-24T16:02:15.570Z,97982.00
2022-11-24T16:04:51.225Z,97979.00
2022-11-24T16:07:27.506Z,97975.00
2022-11-24T16:10:02.411Z,97972.00
2022-11-24T16:12:37.378Z,97977.00
2022-11-24T16:15:12.305Z,97970.00
2022-11-24T16:17:48.166Z,97978.00
2022-11-24T16:20:23.160Z,97976.00
2022-11-24T16:22:59.103Z,97984.00
2022-11-24T16:25:34.076Z,97982.00
2022-11-24T16:28:08.989Z,97978.00
2022-11-24T16:30:49.757Z,97983.00
2022-11-24T16:33:25.004Z,97984.00
2022-11-24T16:36:00.009Z,97985.00
2022-11-24T16:38:35.504Z,97980.00
2022-11-24T16:41:10.984Z,97989.00
2022-11-24T16:43:46.179Z,97984.00
2022-11-24T16:46:23.057Z,97986.00
2022-11-24T16:49:03.421Z,97993.00
2022-11-24T16:51:38.336Z,97992.00
2022-11-24T16:54:13.408Z,97996.00
2022-11-24T16:56:48.314Z,97986.00
2022-11-24T16:59:23.439Z,97985.00
2022-11-24T17:01:58.725Z,97993.00
2022-11-24T17:04:33.873Z,97992.00
2022-11-24T17:07:09.129Z,97986.00
2022-11-24T17:09:44.128Z,97986.00
2022-11-24T17:12:19.039Z,97980.00
2022-11-24T17:15:24.296Z,97989.00
2022-11-24T17:18:22.261Z,97986.00
2022-11-24T17:20:45.718Z,97981.00
2022-11-24T17:23:20.644Z,97999.00
2022-11-24T17:26:05.810Z,97991.00
2022-11-24T17:28:42.237Z,97999.00
2022-11-24T17:31:27.317Z,97991.00
2022-11-24T17:34:06.001Z,97998.00
2022-11-24T17:36:41.961Z,97993.00
2022-11-24T17:39:19.149Z,97995.00
2022-11-24T17:41:58.215Z,97991.00
2022-11-24T17:44:33.384Z,97986.00
2022-11-24T17:47:08.554Z,97985.00
2022-11-24T17:49:43.413Z,97983.00
2022-11-24T17:52:18.801Z,97979.00
2022-11-24T17:54:53.737Z,97977.00
2022-11-24T17:57:28.784Z,97979.00
2022-11-24T18:00:05.305Z,97986.00
2022-11-24T18:02:47.291Z,97993.00
2022-11-24T18:05:22.190Z,98001.00
2022-11-24T18:07:57.066Z,98003.00
2022-11-24T18:10:32.873Z,98005.00
2022-11-24T18:13:07.774Z,98007.00
2022-11-24T18:15:42.625Z,98006.00
2022-11-24T18:18:17.502Z,97997.00
2022-11-24T18:20:57.671Z,98000.00
2022-11-24T18:23:35.749Z,97999.00
2022-11-24T18:26:15.406Z,98000.00
2022-11-24T18:28:51.230Z,97994.00
2022-11-24T18:31:26.351Z,97991.00
2022-11-24T18:34:02.839Z,98002.00
2022-11-24T18:36:37.708Z,97999.00
2022-11-24T18:39:17.693Z,97991.00
2022-11-24T18:41:52.548Z,97997.00
2022-11-24T18:44:27.412Z,97987.00
2022-11-24T18:47:03.307Z,97985.00
2022-11-24T18:49:39.361Z,97982.00
2022-11-24T18:52:14.235Z,97982.00
2022-11-24T18:54:49.117Z,97985.00
2022-11-24T18:57:23.960Z,97991.00
2022-11-24T18:59:59.052Z,97985.00
2022-11-24T19:02:34.660Z,97990.00
2022-11-24T19:05:09.617Z,97990.00
2022-11-24T19:07:44.468Z,97988.00
2022-11-24T19:10:19.517Z,97986.00
2022-11-24T19:12:56.122Z,97986.00
2022-11-24T19:15:34.901Z,97989.00
2022-11-24T19:18:09.816Z,97974.00
2022-11-24T19:20:44.900Z,97988.00
2022-11-24T19:23:19.716Z,97991.00
2022-11-24T19:25:54.537Z,97995.00
2022-11-24T19:28:29.741Z,97991.00
2022-11-24T19:31:11.000Z,97996.00
2022-11-24T19:33:45.886Z,97992.00
2022-11-24T19:36:22.498Z,97994.00
2022-11-24T19:38:59.470Z,97987.00
2022-11-24T19:41:34.608Z,97984.00
2022-11-24T19:44:12.086Z,97983.00
2022-11-24T19:46:47.032Z,97967.00
2022-11-24T19:49:22.029Z,97979.00
2022-11-24T19:51:56.864Z,97983.00
2022-11-24T19:54:33.153Z,97979.00
2022-11-24T19:57:08.227Z,97985.00
2022-11-24T19:59:43.321Z,97979.00
2022-11-24T20:02:18.366Z,97979.00
2022-11-24T20:04:53.213Z,97971.00
2022-11-24T20:07:28.277Z,97962.00
2022-11-24T20:10:07.777Z,97965.00
2022-11-24T20:12:42.997Z,97971.00
2022-11-24T20:15:17.947Z,97964.00
2022-11-24T20:17:52.843Z,97971.00
2022-11-24T20:20:27.689Z,97971.00
2022-11-24T20:23:02.815Z,97967.00
2022-11-24T20:25:38.258Z,97975.00
2022-11-24T20:28:13.081Z,97975.00
2022-11-24T20:30:47.993Z,97972.00
2022-11-24T20:33:22.827Z,97970.00
2022-11-24T20:36:12.727Z,97977.00
2022-11-24T20:38:49.452Z,97977.00
2022-11-24T20:41:31.678Z,97981.00
2022-11-24T20:44:10.664Z,97978.00
2022-11-24T20:46:46.599Z,97981.00
2022-11-24T20:49:23.091Z,97978.00
2022-11-24T20:51:58.081Z,97977.00
2022-11-24T20:54:33.473Z,97982.00
2022-11-24T20:57:08.718Z,97972.00
2022-11-24T20:59:44.043Z,97978.00
2022-11-24T21:02:19.935Z,97978.00
2022-11-24T21:04:54.925Z,97980.00
2022-11-24T21:07:29.803Z,97972.00
2022-11-24T21:10:05.867Z,97978.00
2022-11-24T21:12:40.694Z,97977.00
2022-11-24T21:15:15.706Z,97973.00
2022-11-24T21:17:50.746Z,97980.00
2022-11-24T21:20:25.597Z,97974.00
2022-11-24T21:23:00.459Z,97970.00
2022-11-24T21:25:35.315Z,97967.00
2022-11-24T21:28:10.326Z,97961.00
2022-11-24T21:30:45.216Z,97968.00
2022-11-24T21:33:20.107Z,97960.00
2022-11-24T21:35:54.945Z,97962.00
2022-11-24T21:38:30.609Z,97956.00
2022-11-24T21:41:08.169Z,97969.00
2022-11-24T21:43:43.092Z,97972.00
2022-11-24T21:46:17.993Z,97968.00
2022-11-24T21:48:52.911Z,97962.00
2022-11-24T21:51:28.680Z,97968.00
2022-11-24T21:54:03.625Z,97969.00
2022-11-24T21:56:38.479Z,97960.00
2022-11-24T21:59:13.340Z,97960.00
2022-11-24T22:01:48.276Z,97965.00
2022-11-24T22:04:23.104Z,97967.00
2022-11-24T22:06:57.994Z,97963.00
2022-11-24T22:09:33.872Z,97970.00
2022-11-24T22:12:08.702Z,97971.00
2022-11-24T22:14:43.736Z,97972.00
2022-11-24T22:17:18.650Z,97961.00
2022-11-24T22:19:53.482Z,97970.00
2022-11-24T22:22:28.425Z,97958.00
2022-11-24T22:25:03.388Z,97964.00
2022-11-24T22:27:38.229Z,97971.00
2022-11-24T22:30:13.163Z,97974.00
2022-11-24T22:32:47.981Z,97972.00
2022-11-24T22:35:22.805Z,97969.00
2022-11-24T22:37:57.651Z,97976.00
2022-11-24T22:40:32.479Z,97968.00
2022-11-24T22:43:07.347Z,97962.00
2022-11-24T22:45:42.239Z,97958.00
2022-11-24T22:48:17.154Z,97966.00
2022-11-24T22:50:52.214Z,97966.00
2022-11-24T22:53:27.059Z,97957.00
2022-11-24T22:56:10.679Z,97966.00
2022-11-24T22:58:46.430Z,97976.00
2022-11-24T23:01:24.223Z,97969.00
2022-11-24T23:03:59.159Z,97977.00
2022-11-24T23:06:34.674Z,97977.00
2022-11-24T23:09:12.668Z,97977.00
2022-11-24T23:11:47.651Z,97971.00
2022-11-24T23:14:22.539Z,97971.00
2022-11-24T23:16:57.416Z,97977.00
2022-11-24T23:19:32.332Z,97969.00
2022-11-24T23:22:07.158Z,97978.00
2022-11-24T23:24:41.983Z,97982.00
2022-11-24T23:27:16.808Z,97985.00
2022-11-24T23:29:51.628Z,97979.00
2022-11-24T23:32:26.497Z,97979.00
2022-11-24T23:35:01.424Z,97983.00
2022-11-24T23:37:59.786Z,97986.00
2022-11-24T23:40:31.050Z,97986.00
2022-11-24T23:43:05.867Z,97978.00
2022-11-24T23:45:40.733Z,97979.00
2022-11-24T23:48:15.615Z,97986.00
2022-11-24T23:50:50.431Z,97984.00
2022-11-24T23:53:25.309Z,97985.00
2022-11-24T23:56:00.249Z,97975.00
2022-11-24T23:58:35.479Z,97983.00
